createdAt,value
2023-12-05T00:01:35.752Z,19.77
2023-12-05T00:04:06.752Z,19.50
2023-12-05T00:06:36.706Z,20.88
2023-12-05T00:09:06.933Z,20.40
2023-12-05T00:11:36.890Z,23.48
2023-12-05T00:14:06.651Z,18.23
2023-12-05T00:16:39.424Z,21.75
2023-12-05T00:19:09.331Z,17.90
2023-12-05T00:21:39.395Z,17.98
2023-12-05T00:24:09.609Z,23.88
2023-12-05T00:26:39.420Z,22.05
2023-12-05T00:29:09.270Z,17.27
2023-12-05T00:31:41.734Z,18.42
2023-12-05T00:34:11.535Z,21.90
2023-12-05T00:36:41.648Z,18.15
2023-12-05T00:39:11.788Z,21.63
2023-12-05T00:41:41.684Z,21.17
2023-12-05T00:44:11.929Z,22.33
2023-12-05T00:46:44.562Z,21.15
2023-12-05T00:49:14.709Z,24.63
2023-12-05T00:51:44.624Z,21.55
2023-12-05T00:54:15.790Z,21.48
2023-12-05T00:56:45.831Z,21.35
2023-12-05T00:59:15.640Z,25.17
2023-12-05T01:01:48.465Z,19.38
2023-12-05T01:06:49.231Z,20.73
2023-12-05T01:09:20.884Z,28.17
2023-12-05T01:11:51.834Z,19.67
2023-12-05T01:14:22.414Z,23.80
2023-12-05T01:16:55.506Z,22.80
2023-12-05T01:19:25.469Z,20.55
2023-12-05T01:21:56.131Z,22.65
2023-12-05T01:24:26.298Z,23.92
2023-12-05T01:26:56.343Z,21.40
2023-12-05T01:29:26.973Z,21.52
2023-12-05T01:31:59.314Z,24.20
2023-12-05T01:34:29.203Z,23.23
2023-12-05T01:36:59.338Z,26.42
2023-12-05T01:39:29.289Z,26.95
2023-12-05T01:42:01.261Z,27.52
2023-12-05T01:44:31.119Z,23.23
2023-12-05T01:47:04.851Z,26.45
2023-12-05T01:49:37.317Z,28.55
2023-12-05T01:52:08.719Z,26.00
2023-12-05T01:54:39.167Z,28.63
2023-12-05T01:57:10.614Z,26.13
2023-12-05T01:59:40.991Z,29.40
2023-12-05T02:02:14.996Z,30.90
2023-12-05T02:04:45.458Z,25.10
2023-12-05T02:07:17.203Z,28.20
2023-12-05T02:09:48.323Z,25.80
2023-12-05T02:12:18.478Z,24.75
2023-12-05T02:14:48.440Z,23.60
2023-12-05T02:17:32.346Z,25.98
2023-12-05T02:20:12.149Z,27.95
2023-12-05T02:23:03.464Z,25.80
2023-12-05T02:25:50.849Z,23.67
2023-12-05T02:28:24.198Z,22.38
2023-12-05T02:30:54.222Z,26.33
2023-12-05T02:33:24.442Z,29.00
2023-12-05T02:36:03.660Z,26.08
2023-12-05T02:41:13.996Z,32.78
2023-12-05T02:43:50.516Z,20.17
2023-12-05T02:46:21.632Z,29.13
2023-12-05T02:48:53.817Z,30.77
2023-12-05T02:51:23.854Z,26.95
2023-12-05T02:53:53.668Z,29.58
2023-12-05T02:56:24.172Z,23.27
2023-12-05T02:58:56.560Z,26.30
2023-12-05T03:01:26.781Z,29.48
2023-12-05T03:03:56.672Z,26.25
2023-12-05T03:06:28.578Z,27.83
2023-12-05T03:09:01.327Z,28.25
2023-12-05T03:11:31.832Z,22.42
2023-12-05T03:14:06.044Z,31.05
2023-12-05T03:16:35.894Z,25.40
2023-12-05T03:19:05.848Z,27.95
2023-12-05T03:21:36.510Z,23.63
2023-12-05T03:24:07.164Z,26.17
2023-12-05T03:26:37.195Z,33.63
2023-12-05T03:29:09.612Z,26.90
2023-12-05T03:31:41.381Z,29.15
2023-12-05T03:34:11.196Z,29.88
2023-12-05T03:36:41.129Z,28.95
2023-12-05T03:39:12.180Z,30.63
2023-12-05T03:41:44.501Z,26.13
2023-12-05T03:44:17.176Z,15.27
2023-12-05T03:46:48.933Z,27.88
2023-12-05T03:49:18.859Z,28.63
2023-12-05T03:51:48.720Z,21.67
2023-12-05T03:54:18.970Z,29.15
2023-12-05T03:56:48.817Z,27.52
2023-12-05T03:59:21.268Z,27.05
2023-12-05T04:01:51.297Z,25.90
2023-12-05T04:04:21.341Z,21.67
2023-12-05T04:06:51.386Z,21.20
2023-12-05T04:09:21.965Z,24.50
2023-12-05T04:11:51.902Z,29.83
2023-12-05T04:14:24.345Z,24.05
2023-12-05T04:16:55.490Z,27.30
2023-12-05T04:19:25.619Z,30.85
2023-12-05T04:21:55.501Z,27.38
2023-12-05T04:24:25.321Z,23.88
2023-12-05T04:26:56.464Z,27.42
2023-12-05T04:29:29.707Z,29.05
2023-12-05T04:32:00.576Z,25.40
2023-12-05T04:34:30.504Z,31.58
2023-12-05T04:37:00.443Z,26.52
2023-12-05T04:39:30.813Z,29.75
2023-12-05T04:42:01.195Z,31.30
2023-12-05T04:44:33.592Z,26.35
2023-12-05T04:47:05.022Z,21.67
2023-12-05T04:49:35.211Z,24.92
2023-12-05T04:52:05.196Z,26.75
2023-12-05T04:54:35.009Z,26.20
2023-12-05T04:57:04.843Z,17.83
2023-12-05T04:59:37.293Z,28.27
2023-12-05T05:02:07.727Z,26.60
2023-12-05T05:04:38.071Z,24.33
2023-12-05T05:07:08.027Z,27.92
2023-12-05T05:09:41.655Z,24.83
2023-12-05T05:12:12.770Z,22.90
2023-12-05T05:14:45.458Z,27.60
2023-12-05T05:17:15.287Z,29.00
2023-12-05T05:19:45.251Z,29.55
2023-12-05T05:22:15.378Z,23.63
2023-12-05T05:24:45.256Z,23.63
2023-12-05T05:27:15.787Z,28.75
2023-12-05T05:29:48.212Z,26.30
2023-12-05T05:32:18.766Z,24.33
2023-12-05T05:34:48.565Z,28.38
2023-12-05T05:37:19.999Z,24.35
2023-12-05T05:39:49.902Z,21.80
2023-12-05T05:42:19.773Z,22.02
2023-12-05T05:44:52.341Z,26.95
2023-12-05T05:47:22.437Z,22.23
2023-12-05T05:49:52.364Z,29.02
2023-12-05T05:52:22.245Z,20.95
2023-12-05T05:54:52.208Z,21.50
2023-12-05T05:57:23.093Z,24.27
2023-12-05T05:59:55.609Z,26.30
2023-12-05T06:02:25.517Z,25.55
2023-12-05T06:04:55.412Z,26.50
2023-12-05T06:07:25.508Z,25.00
2023-12-05T06:09:55.601Z,25.80
2023-12-05T06:15:00.786Z,19.95
2023-12-05T06:17:30.607Z,25.40
2023-12-05T06:20:00.414Z,27.15
2023-12-05T06:22:30.393Z,26.27
2023-12-05T06:25:00.179Z,24.50
2023-12-05T06:27:30.317Z,24.85
2023-12-05T06:30:09.620Z,22.52
2023-12-05T06:32:46.925Z,26.63
2023-12-05T06:35:16.969Z,18.85
2023-12-05T06:37:47.603Z,22.67
2023-12-05T06:40:17.447Z,23.63
2023-12-05T06:42:47.687Z,25.55
2023-12-05T06:45:20.481Z,23.00
2023-12-05T06:47:50.747Z,24.45
2023-12-05T06:50:20.827Z,33.63
2023-12-05T06:52:51.593Z,29.23
2023-12-05T06:55:21.955Z,31.17
2023-12-05T06:57:51.978Z,27.75
2023-12-05T07:00:25.454Z,30.48
2023-12-05T07:02:55.347Z,28.67
2023-12-05T07:05:25.805Z,28.20
2023-12-05T07:07:56.066Z,25.85
2023-12-05T07:10:26.926Z,28.88
2023-12-05T07:12:57.518Z,24.05
2023-12-05T07:15:30.026Z,30.63
2023-12-05T07:18:05.115Z,29.23
2023-12-05T07:20:34.998Z,35.83
2023-12-05T07:23:04.966Z,27.10
2023-12-05T07:25:34.865Z,25.42
2023-12-05T07:28:04.739Z,25.77
2023-12-05T07:30:37.226Z,33.78
2023-12-05T07:33:07.689Z,29.65
2023-12-05T07:35:37.581Z,31.73
2023-12-05T07:38:07.626Z,29.27
2023-12-05T07:40:37.898Z,31.33
2023-12-05T07:43:07.961Z,27.58
2023-12-05T07:45:40.777Z,33.42
2023-12-05T07:50:41.919Z,18.10
2023-12-05T07:53:11.923Z,24.25
2023-12-05T07:55:42.056Z,30.67
2023-12-05T07:58:13.011Z,34.60
2023-12-05T08:00:45.656Z,32.22
2023-12-05T08:03:15.970Z,31.27
2023-12-05T08:05:45.989Z,31.90
2023-12-05T08:08:16.437Z,31.92
2023-12-05T08:10:47.249Z,27.30
2023-12-05T08:13:17.039Z,33.53
2023-12-05T08:15:49.677Z,26.10
2023-12-05T08:18:19.880Z,28.95
2023-12-05T08:20:50.003Z,34.50
2023-12-05T08:23:20.610Z,31.88
2023-12-05T08:25:50.938Z,28.88
2023-12-05T08:28:20.915Z,32.72
2023-12-05T08:30:53.379Z,30.27
2023-12-05T08:33:24.007Z,27.23
2023-12-05T08:35:54.262Z,26.10
2023-12-05T08:38:24.064Z,31.20
2023-12-05T08:40:55.653Z,33.15
2023-12-05T08:43:26.588Z,33.67
2023-12-05T08:46:00.298Z,34.33
2023-12-05T08:48:30.493Z,37.33
2023-12-05T08:51:00.425Z,31.08
2023-12-05T08:53:31.330Z,30.52
2023-12-05T08:56:01.718Z,32.30
2023-12-05T08:58:37.152Z,27.23
2023-12-05T09:01:10.017Z,24.77
2023-12-05T09:03:40.158Z,28.50
2023-12-05T09:06:10.742Z,28.48
2023-12-05T09:08:40.937Z,29.45
2023-12-05T09:11:11.976Z,29.73
2023-12-05T09:13:42.077Z,24.95
2023-12-05T09:16:14.573Z,27.40
2023-12-05T09:18:44.624Z,25.23
2023-12-05T09:21:14.530Z,27.85
2023-12-05T09:23:44.366Z,27.90
2023-12-05T09:26:14.227Z,31.35
2023-12-05T09:28:44.047Z,27.08
2023-12-05T09:31:17.764Z,23.88
2023-12-05T09:33:47.646Z,26.60
2023-12-05T09:36:17.495Z,27.13
2023-12-05T09:38:48.116Z,26.08
2023-12-05T09:41:19.883Z,30.38
2023-12-05T09:43:52.740Z,25.90
2023-12-05T09:46:31.675Z,27.15
2023-12-05T09:49:09.035Z,30.27
2023-12-05T09:51:40.486Z,30.42
2023-12-05T09:54:11.800Z,28.60
2023-12-05T09:56:43.239Z,37.28
2023-12-05T09:59:13.817Z,25.92
2023-12-05T10:01:48.979Z,29.10
2023-12-05T10:04:21.767Z,26.83
2023-12-05T10:06:54.420Z,31.63
2023-12-05T10:09:25.191Z,25.17
2023-12-05T10:11:56.356Z,26.52
2023-12-05T10:14:26.337Z,26.65
2023-12-05T10:16:59.380Z,28.05
2023-12-05T10:19:30.843Z,30.73
2023-12-05T10:22:01.689Z,29.20
2023-12-05T10:24:42.510Z,27.80
2023-12-05T10:27:12.821Z,26.48
2023-12-05T10:29:44.035Z,30.10
2023-12-05T10:32:17.481Z,25.58
2023-12-05T10:34:51.934Z,32.88
2023-12-05T10:37:25.551Z,30.13
2023-12-05T10:39:57.107Z,31.38
2023-12-05T10:42:29.801Z,28.38
2023-12-05T10:45:00.716Z,27.98
2023-12-05T10:47:33.755Z,30.17
2023-12-05T10:50:03.989Z,28.90
2023-12-05T10:52:35.558Z,37.45
2023-12-05T10:55:05.847Z,27.70
2023-12-05T10:57:38.736Z,25.83
2023-12-05T11:00:11.176Z,26.90
2023-12-05T11:02:43.816Z,27.90
2023-12-05T11:05:14.358Z,28.80
2023-12-05T11:07:44.234Z,26.33
2023-12-05T11:10:14.612Z,30.33
2023-12-05T11:12:45.735Z,28.25
2023-12-05T11:15:19.987Z,29.15
2023-12-05T11:17:54.690Z,32.92
2023-12-05T11:20:36.892Z,25.80
2023-12-05T11:23:22.745Z,29.40
2023-12-05T11:26:02.311Z,29.48
2023-12-05T11:28:56.313Z,27.40
2023-12-05T11:31:33.439Z,25.88
2023-12-05T11:34:34.622Z,26.27
2023-12-05T11:37:17.392Z,28.63
2023-12-05T11:39:47.930Z,28.88
2023-12-05T11:42:20.548Z,26.52
2023-12-05T11:44:50.536Z,26.65
2023-12-05T11:47:26.721Z,23.48
2023-12-05T11:50:01.755Z,29.42
2023-12-05T11:52:39.033Z,23.15
2023-12-05T11:55:10.410Z,25.63
2023-12-05T11:57:41.582Z,23.92
2023-12-05T12:00:13.751Z,26.42
2023-12-05T12:02:51.890Z,28.85
2023-12-05T12:05:24.571Z,28.95
2023-12-05T12:10:28.569Z,24.45
2023-12-05T12:12:59.844Z,25.05
2023-12-05T12:15:40.581Z,29.38
2023-12-05T12:18:10.617Z,27.73
2023-12-05T12:20:43.349Z,29.02
2023-12-05T12:23:13.897Z,29.13
2023-12-05T12:25:54.147Z,25.20
2023-12-05T12:28:30.762Z,30.85
2023-12-05T12:31:01.242Z,31.55
2023-12-05T12:33:39.972Z,25.67
2023-12-05T12:36:14.789Z,26.50
2023-12-05T12:38:45.226Z,32.28
2023-12-05T12:41:15.670Z,28.25
2023-12-05T12:43:46.247Z,30.17
2023-12-05T12:46:16.594Z,25.85
2023-12-05T12:48:46.491Z,28.65
2023-12-05T12:51:20.243Z,27.50
2023-12-05T12:53:50.914Z,22.73
2023-12-05T12:56:20.914Z,24.42
2023-12-05T12:58:50.777Z,19.48
2023-12-05T13:01:21.876Z,21.30
2023-12-05T13:03:52.206Z,23.60
2023-12-05T13:06:24.904Z,18.48
2023-12-05T13:08:55.192Z,19.10
2023-12-05T13:11:26.404Z,21.60
2023-12-05T13:13:56.256Z,19.33
2023-12-05T13:16:27.027Z,21.23
2023-12-05T13:18:57.000Z,20.35
2023-12-05T13:21:37.594Z,20.50
2023-12-05T13:24:07.822Z,18.48
2023-12-05T13:26:37.885Z,26.10
2023-12-05T13:29:07.841Z,23.52
2023-12-05T13:31:37.952Z,19.80
2023-12-05T13:34:07.999Z,22.95
2023-12-05T13:36:42.291Z,19.98
2023-12-05T13:39:15.075Z,20.75
2023-12-05T13:41:45.502Z,19.80
2023-12-05T13:44:15.331Z,18.23
2023-12-05T13:46:45.574Z,17.25
2023-12-05T13:49:16.087Z,20.17
2023-12-05T13:51:49.115Z,17.60
2023-12-05T13:54:20.041Z,18.65
2023-12-05T13:56:50.388Z,17.30
2023-12-05T13:59:20.520Z,13.93
2023-12-05T14:01:51.417Z,15.50
2023-12-05T14:04:22.176Z,17.25
2023-12-05T14:06:55.281Z,17.08
2023-12-05T14:09:25.645Z,17.90
2023-12-05T14:11:55.750Z,16.83
2023-12-05T14:14:25.557Z,18.05
2023-12-05T14:16:55.408Z,18.83
2023-12-05T14:19:25.876Z,19.02
2023-12-05T14:21:58.901Z,18.40
2023-12-05T14:24:30.334Z,21.25
2023-12-05T14:27:00.560Z,19.33
2023-12-05T14:29:30.326Z,18.45
2023-12-05T14:32:00.248Z,23.02
2023-12-05T14:34:30.173Z,23.63
2023-12-05T14:37:04.528Z,22.58
2023-12-05T14:39:34.438Z,20.45
2023-12-05T14:42:05.503Z,21.40
2023-12-05T14:44:35.406Z,20.60
2023-12-05T14:47:08.769Z,22.90
2023-12-05T14:49:38.872Z,18.88
2023-12-05T14:52:12.813Z,18.15
2023-12-05T14:54:42.706Z,18.58
2023-12-05T14:57:12.573Z,18.05
2023-12-05T14:59:42.842Z,19.20
2023-12-05T15:02:13.216Z,20.55
2023-12-05T15:04:44.400Z,19.67
2023-12-05T15:07:17.392Z,17.88
2023-12-05T15:09:47.461Z,17.20
2023-12-05T15:12:18.139Z,24.75
2023-12-05T15:14:48.983Z,18.75
2023-12-05T15:17:20.139Z,21.15
2023-12-05T15:20:18.082Z,15.40
2023-12-05T15:22:46.788Z,18.60
2023-12-05T15:25:16.735Z,17.58
2023-12-05T15:27:46.673Z,14.85
2023-12-05T15:30:17.152Z,18.40
2023-12-05T15:32:52.711Z,20.38
2023-12-05T15:35:23.812Z,19.25
2023-12-05T15:37:56.281Z,15.75
2023-12-05T15:40:27.124Z,18.88
2023-12-05T15:42:57.012Z,19.50
2023-12-05T15:45:27.176Z,18.40
2023-12-05T15:47:57.403Z,24.98
2023-12-05T15:50:27.605Z,20.05
2023-12-05T15:53:02.560Z,19.90
2023-12-05T15:55:33.660Z,21.45
2023-12-05T15:58:03.831Z,19.33
2023-12-05T16:00:33.730Z,29.45
2023-12-05T16:03:04.809Z,27.92
2023-12-05T16:05:34.723Z,24.75
2023-12-05T16:08:08.302Z,24.73
2023-12-05T16:10:38.816Z,21.45
2023-12-05T16:13:08.824Z,23.73
2023-12-05T16:15:38.706Z,20.60
2023-12-05T16:18:09.104Z,22.63
2023-12-05T16:20:39.296Z,17.67
2023-12-05T16:23:11.683Z,22.42
2023-12-05T16:25:42.243Z,24.02
2023-12-05T16:28:12.841Z,23.42
2023-12-05T16:30:42.734Z,22.50
2023-12-05T16:33:12.593Z,24.08
2023-12-05T16:35:42.404Z,24.75
2023-12-05T16:38:14.937Z,20.08
2023-12-05T16:40:47.934Z,20.45
2023-12-05T16:43:17.840Z,18.58
2023-12-05T16:45:47.805Z,19.50
2023-12-05T16:48:17.787Z,15.85
2023-12-05T16:50:47.720Z,19.38
2023-12-05T16:53:20.153Z,23.08
2023-12-05T16:55:50.897Z,20.95
2023-12-05T16:58:21.871Z,21.92
2023-12-05T17:00:52.854Z,20.67
2023-12-05T17:03:22.782Z,18.77
2023-12-05T17:05:53.802Z,20.35
2023-12-05T17:08:26.191Z,22.10
2023-12-05T17:10:56.102Z,23.48
2023-12-05T17:13:25.943Z,17.10
2023-12-05T17:15:55.917Z,19.25
2023-12-05T17:18:26.117Z,22.02
2023-12-05T17:20:56.302Z,26.33
2023-12-05T17:23:30.793Z,18.77
2023-12-05T17:26:00.759Z,22.95
2023-12-05T17:28:31.066Z,20.42
2023-12-05T17:31:03.241Z,19.73
2023-12-05T17:33:33.865Z,21.92
2023-12-05T17:36:03.802Z,18.45
2023-12-05T17:38:36.278Z,21.92
2023-12-05T17:41:06.470Z,18.35
2023-12-05T17:43:36.523Z,22.83
2023-12-05T17:46:06.925Z,23.35
2023-12-05T17:48:37.019Z,19.88
2023-12-05T17:51:07.610Z,20.95
2023-12-05T17:53:40.250Z,17.67
2023-12-05T17:58:40.344Z,19.20
2023-12-05T18:01:10.508Z,19.42
2023-12-05T18:03:41.007Z,17.33
2023-12-05T18:06:13.236Z,19.33
2023-12-05T18:08:46.960Z,17.98
2023-12-05T18:11:16.837Z,18.77
2023-12-05T18:13:46.757Z,18.80
2023-12-05T18:16:19.122Z,22.17
2023-12-05T18:18:51.685Z,22.67
2023-12-05T18:23:55.525Z,20.48
2023-12-05T18:26:25.606Z,18.63
2023-12-05T18:28:55.545Z,18.35
2023-12-05T18:31:25.898Z,18.00
2023-12-05T18:33:58.030Z,19.95
2023-12-05T18:36:28.979Z,18.88
2023-12-05T18:39:01.732Z,15.60
2023-12-05T18:41:31.723Z,16.27
2023-12-05T18:44:02.109Z,17.30
2023-12-05T18:46:31.948Z,24.45
2023-12-05T18:49:02.117Z,17.83
2023-12-05T18:51:31.985Z,17.13
2023-12-05T18:54:04.923Z,23.33
2023-12-05T18:59:04.398Z,24.77
2023-12-05T19:01:34.268Z,20.02
2023-12-05T19:04:04.899Z,22.80
2023-12-05T19:06:35.034Z,25.50
2023-12-05T19:09:08.519Z,24.73
2023-12-05T19:11:38.459Z,22.20
2023-12-05T19:14:08.375Z,22.52
2023-12-05T19:16:38.214Z,26.10
2023-12-05T19:19:09.577Z,31.42
2023-12-05T19:21:39.991Z,25.35
2023-12-05T19:24:12.441Z,20.73
2023-12-05T19:26:42.412Z,24.58
2023-12-05T19:29:12.384Z,25.38
2023-12-05T19:31:42.522Z,19.65
2023-12-05T19:34:12.640Z,15.65
2023-12-05T19:36:42.776Z,17.27
2023-12-05T19:39:15.905Z,14.77
2023-12-05T19:41:45.911Z,16.63
2023-12-05T19:44:15.748Z,12.07
2023-12-05T19:46:45.608Z,14.38
2023-12-05T19:49:15.701Z,13.80
2023-12-05T19:51:45.679Z,12.05
2023-12-05T19:54:18.233Z,13.70
2023-12-05T19:56:48.123Z,13.48
2023-12-05T19:59:18.088Z,10.23
2023-12-05T20:01:48.183Z,11.88
2023-12-05T20:04:19.467Z,11.60
2023-12-05T20:06:49.703Z,12.70
2023-12-05T20:09:22.277Z,10.75
2023-12-05T20:14:21.943Z,12.98
2023-12-05T20:16:51.917Z,15.65
2023-12-05T20:19:22.425Z,14.85
2023-12-05T20:21:52.409Z,16.73
2023-12-05T20:24:25.054Z,13.38
2023-12-05T20:26:54.922Z,16.45
2023-12-05T20:29:24.987Z,14.18
2023-12-05T20:31:54.925Z,13.77
2023-12-05T20:34:25.107Z,15.23
2023-12-05T20:36:55.236Z,16.27
2023-12-05T20:39:28.261Z,15.88
2023-12-05T20:41:58.250Z,16.33
2023-12-05T20:44:28.393Z,13.98
2023-12-05T20:46:58.444Z,15.48
2023-12-05T20:49:28.493Z,15.93
2023-12-05T20:52:00.026Z,15.75
2023-12-05T20:54:33.193Z,15.80
2023-12-05T20:57:03.355Z,15.10
2023-12-05T20:59:33.254Z,17.00
2023-12-05T21:02:03.801Z,16.52
2023-12-05T21:04:33.753Z,14.82
2023-12-05T21:07:03.930Z,16.02
2023-12-05T21:09:36.929Z,16.73
2023-12-05T21:12:07.607Z,13.73
2023-12-05T21:14:37.735Z,18.10
2023-12-05T21:17:08.103Z,15.10
2023-12-05T21:19:38.045Z,12.35
2023-12-05T21:22:07.996Z,18.60
2023-12-05T21:24:41.230Z,13.18
2023-12-05T21:27:13.565Z,14.85
2023-12-05T21:29:43.542Z,15.63
2023-12-05T21:32:13.705Z,17.10
2023-12-05T21:34:43.804Z,16.00
2023-12-05T21:37:14.031Z,16.40
2023-12-05T21:39:46.517Z,15.68
2023-12-05T21:42:16.787Z,14.95
2023-12-05T21:44:46.774Z,14.02
2023-12-05T21:47:16.901Z,15.90
2023-12-05T21:49:46.943Z,19.08
2023-12-05T21:52:17.426Z,19.10
2023-12-05T21:54:50.031Z,14.00
2023-12-05T21:59:49.951Z,15.13
2023-12-05T22:02:19.788Z,12.63
2023-12-05T22:04:49.713Z,19.52
2023-12-05T22:07:19.953Z,16.10
2023-12-05T22:09:52.637Z,12.63
2023-12-05T22:14:52.338Z,16.08
2023-12-05T22:17:22.799Z,17.60
2023-12-05T22:19:52.902Z,14.38
2023-12-05T22:22:22.790Z,13.68
2023-12-05T22:24:55.743Z,15.45
2023-12-05T22:27:25.911Z,18.00
2023-12-05T22:29:56.020Z,15.35
2023-12-05T22:32:26.263Z,16.67
2023-12-05T22:34:56.461Z,16.98
2023-12-05T22:37:26.473Z,14.10
2023-12-05T22:39:59.705Z,16.60
2023-12-05T22:42:29.558Z,15.65
2023-12-05T22:44:59.380Z,18.33
2023-12-05T22:47:31.217Z,15.93
2023-12-05T22:50:01.713Z,15.13
2023-12-05T22:52:31.961Z,17.85
2023-12-05T22:55:04.568Z,14.85
2023-12-05T23:00:07.380Z,14.98
2023-12-05T23:02:37.441Z,15.48
2023-12-05T23:05:08.056Z,13.85
2023-12-05T23:07:38.636Z,11.38
2023-12-05T23:10:12.156Z,14.18
2023-12-05T23:12:43.877Z,14.40
2023-12-05T23:15:14.594Z,11.23
2023-12-05T23:17:45.127Z,13.13
2023-12-05T23:20:15.472Z,11.10
2023-12-05T23:22:45.738Z,10.52
2023-12-05T23:25:18.972Z,12.48
2023-12-05T23:27:48.942Z,9.63
2023-12-05T23:30:20.083Z,11.40
2023-12-05T23:32:50.037Z,11.40
2023-12-05T23:35:20.404Z,10.27
2023-12-05T23:37:50.656Z,10.45
2023-12-05T23:40:23.278Z,12.25
2023-12-05T23:42:53.710Z,10.45
2023-12-05T23:45:23.641Z,9.23
2023-12-05T23:47:54.489Z,11.20
2023-12-05T23:50:24.678Z,10.60
2023-12-05T23:52:54.528Z,15.82
2023-12-05T23:55:26.947Z,15.77
2023-12-05T23:57:57.206Z,15.85
